createdAt,value
2023-01-15T00:00:06.010Z,9.90
2023-01-15T00:02:36.501Z,9.85
2023-01-15T00:05:03.778Z,9.76
2023-01-15T00:07:31.303Z,9.43
2023-01-15T00:09:58.836Z,8.90
2023-01-15T00:12:26.304Z,8.40
2023-01-15T00:14:53.009Z,8.04
2023-01-15T00:17:20.223Z,7.81
2023-01-15T00:19:47.425Z,7.59
2023-01-15T00:22:14.605Z,7.45
2023-01-15T00:25:00.011Z,7.29
2023-01-15T00:27:39.179Z,7.14
2023-01-15T00:30:11.955Z,7.02
2023-01-15T00:32:39.690Z,6.92
2023-01-15T00:35:09.945Z,6.86
2023-01-15T00:37:36.837Z,6.77
2023-01-15T00:40:04.444Z,6.64
2023-01-15T00:42:31.237Z,6.55
2023-01-15T00:44:58.177Z,6.43
2023-01-15T00:47:26.382Z,6.34
2023-01-15T00:49:53.410Z,6.26
2023-01-15T00:52:20.632Z,6.20
2023-01-15T00:54:48.327Z,6.11
2023-01-15T00:57:15.448Z,6.01
2023-01-15T00:59:43.024Z,5.93
2023-01-15T01:02:09.751Z,5.85
2023-01-15T01:04:36.788Z,5.80
2023-01-15T01:07:04.222Z,5.75
2023-01-15T01:09:31.772Z,5.69
2023-01-15T01:11:58.967Z,5.61
2023-01-15T01:14:28.440Z,5.53
2023-01-15T01:16:55.316Z,5.47
2023-01-15T01:19:24.060Z,5.42
2023-01-15T01:21:52.166Z,5.36
2023-01-15T01:24:27.616Z,5.30
2023-01-15T01:26:58.222Z,5.25
2023-01-15T01:29:25.653Z,5.22
2023-01-15T01:32:01.765Z,5.20
2023-01-15T01:34:28.660Z,5.18
2023-01-15T01:36:55.819Z,5.19
2023-01-15T01:39:22.797Z,5.18
2023-01-15T01:41:52.441Z,5.15
2023-01-15T01:44:58.556Z,5.13
2023-01-15T01:47:28.301Z,5.08
2023-01-15T01:50:02.570Z,5.03
2023-01-15T01:52:45.215Z,4.99
2023-01-15T01:55:17.072Z,4.96
2023-01-15T01:57:48.079Z,4.92
2023-01-15T02:00:18.207Z,4.87
2023-01-15T02:02:48.328Z,4.81
2023-01-15T02:05:27.634Z,4.74
2023-01-15T02:07:55.650Z,4.70
2023-01-15T02:10:26.469Z,4.65
2023-01-15T02:13:26.276Z,4.61
2023-01-15T02:16:28.692Z,4.54
2023-01-15T02:19:22.729Z,4.53
2023-01-15T02:22:14.560Z,4.51
2023-01-15T02:25:05.725Z,4.50
2023-01-15T02:27:33.262Z,4.50
2023-01-15T02:30:42.360Z,4.49
2023-01-15T02:33:18.705Z,4.51
2023-01-15T02:35:58.411Z,4.52
2023-01-15T02:38:30.679Z,4.52
2023-01-15T02:41:01.286Z,4.53
2023-01-15T02:43:33.867Z,4.53
2023-01-15T02:46:09.189Z,4.54
2023-01-15T02:48:39.444Z,4.55
2023-01-15T02:51:12.681Z,4.56
2023-01-15T02:53:43.142Z,4.57
2023-01-15T02:56:20.880Z,4.58
2023-01-15T02:58:51.195Z,4.59
2023-01-15T03:01:32.457Z,4.60
2023-01-15T03:04:10.370Z,4.61
2023-01-15T03:07:15.159Z,4.64
2023-01-15T03:09:42.473Z,4.63
2023-01-15T03:13:02.847Z,4.63
2023-01-15T03:16:17.778Z,4.65
2023-01-15T03:18:53.285Z,4.67
2023-01-15T03:21:27.317Z,4.70
2023-01-15T03:24:01.505Z,4.73
2023-01-15T03:26:31.390Z,4.75
2023-01-15T03:29:00.195Z,4.76
2023-01-15T03:31:29.804Z,4.77
2023-01-15T03:33:56.596Z,4.76
2023-01-15T03:36:32.362Z,4.76
2023-01-15T03:38:59.565Z,4.76
2023-01-15T03:41:48.552Z,4.75
2023-01-15T03:44:41.499Z,4.75
2023-01-15T03:47:08.492Z,4.77
2023-01-15T03:49:53.707Z,4.78
2023-01-15T03:52:28.444Z,4.80
2023-01-15T03:55:11.088Z,4.83
2023-01-15T03:57:49.689Z,4.84
2023-01-15T04:00:26.424Z,4.86
2023-01-15T04:02:56.430Z,4.88
2023-01-15T04:05:28.831Z,4.89
2023-01-15T04:08:01.015Z,4.89
2023-01-15T04:10:27.831Z,4.91
2023-01-15T04:12:54.851Z,4.91
2023-01-15T04:15:21.795Z,4.91
2023-01-15T04:17:48.862Z,4.93
2023-01-15T04:20:16.297Z,4.95
2023-01-15T04:22:43.291Z,4.98
2023-01-15T04:25:10.541Z,4.97
2023-01-15T04:27:37.762Z,4.98
2023-01-15T04:30:05.277Z,4.99
2023-01-15T04:32:32.261Z,4.99
2023-01-15T04:34:59.400Z,5.02
2023-01-15T04:37:26.140Z,5.05
2023-01-15T04:39:52.933Z,5.08
2023-01-15T04:42:42.435Z,5.10
2023-01-15T04:45:10.652Z,5.13
2023-01-15T04:47:37.666Z,5.15
2023-01-15T04:50:04.746Z,5.15
2023-01-15T04:52:31.548Z,5.16
2023-01-15T04:54:58.819Z,5.16
2023-01-15T04:57:26.152Z,5.16
2023-01-15T04:59:53.442Z,5.15
2023-01-15T05:02:20.620Z,5.15
2023-01-15T05:04:47.800Z,5.15
2023-01-15T05:07:14.875Z,5.16
2023-01-15T05:09:42.065Z,5.16
2023-01-15T05:12:09.043Z,5.17
2023-01-15T05:14:36.147Z,5.18
2023-01-15T05:17:03.019Z,5.20
2023-01-15T05:19:29.997Z,5.20
2023-01-15T05:21:56.961Z,5.20
2023-01-15T05:24:24.171Z,5.20
2023-01-15T05:26:51.031Z,5.21
2023-01-15T05:29:17.952Z,5.22
2023-01-15T05:31:45.416Z,5.22
2023-01-15T05:34:13.323Z,5.21
2023-01-15T05:36:42.518Z,5.22
2023-01-15T05:39:09.654Z,5.24
2023-01-15T05:41:52.795Z,5.22
2023-01-15T05:44:24.126Z,5.21
2023-01-15T05:46:54.760Z,5.20
2023-01-15T05:49:24.034Z,5.20
2023-01-15T05:51:52.224Z,5.21
2023-01-15T05:54:22.106Z,5.22
2023-01-15T05:56:49.309Z,5.21
2023-01-15T05:59:17.749Z,5.19
2023-01-15T06:01:44.782Z,5.20
2023-01-15T06:04:17.830Z,5.20
2023-01-15T06:06:44.847Z,5.18
2023-01-15T06:09:11.872Z,5.19
2023-01-15T06:11:39.759Z,5.20
2023-01-15T06:14:07.803Z,5.23
2023-01-15T06:16:34.869Z,5.24
2023-01-15T06:19:04.110Z,5.25
2023-01-15T06:21:32.689Z,5.28
2023-01-15T06:24:00.353Z,5.31
2023-01-15T06:26:28.094Z,5.33
2023-01-15T06:28:55.036Z,5.35
2023-01-15T06:31:23.438Z,5.37
2023-01-15T06:33:50.165Z,5.37
2023-01-15T06:36:22.021Z,5.41
2023-01-15T06:38:49.395Z,5.45
2023-01-15T06:41:38.153Z,5.47
2023-01-15T06:44:24.845Z,5.47
2023-01-15T06:47:10.510Z,5.49
2023-01-15T06:49:38.105Z,5.51
2023-01-15T06:52:05.450Z,5.54
2023-01-15T06:54:33.300Z,5.58
2023-01-15T06:57:00.556Z,5.57
2023-01-15T06:59:27.551Z,5.57
2023-01-15T07:01:54.353Z,5.57
2023-01-15T07:04:21.112Z,5.58
2023-01-15T07:06:47.810Z,5.56
2023-01-15T07:09:14.823Z,5.61
2023-01-15T07:11:51.170Z,5.63
2023-01-15T07:14:26.811Z,5.64
2023-01-15T07:16:53.764Z,5.64
2023-01-15T07:19:20.682Z,5.62
2023-01-15T07:21:48.838Z,5.63
2023-01-15T07:24:17.073Z,5.61
2023-01-15T07:26:45.391Z,5.59
2023-01-15T07:29:13.098Z,5.62
2023-01-15T07:31:40.780Z,5.61
2023-01-15T07:34:08.104Z,5.61
2023-01-15T07:36:35.368Z,5.61
2023-01-15T07:39:05.275Z,5.64
2023-01-15T07:41:50.908Z,5.64
2023-01-15T07:44:36.642Z,5.64
2023-01-15T07:47:24.871Z,5.66
2023-01-15T07:49:52.137Z,5.67
2023-01-15T07:52:21.193Z,5.67
2023-01-15T07:54:49.286Z,5.66
2023-01-15T07:57:20.044Z,5.66
2023-01-15T07:59:46.983Z,5.69
2023-01-15T08:02:14.820Z,5.69
2023-01-15T08:04:41.809Z,5.71
2023-01-15T08:07:09.224Z,5.69
2023-01-15T08:09:36.125Z,5.71
2023-01-15T08:12:22.893Z,5.73
2023-01-15T08:15:08.672Z,5.76
2023-01-15T08:17:39.069Z,5.76
2023-01-15T08:20:09.017Z,5.77
2023-01-15T08:22:36.113Z,5.78
2023-01-15T08:25:03.371Z,5.78
2023-01-15T08:27:31.615Z,5.78
2023-01-15T08:30:00.310Z,5.79
2023-01-15T08:32:27.218Z,5.79
2023-01-15T08:34:53.861Z,5.80
2023-01-15T08:37:20.848Z,5.82
2023-01-15T08:39:47.732Z,5.83
2023-01-15T08:42:14.441Z,5.84
2023-01-15T08:44:41.326Z,5.86
2023-01-15T08:47:08.215Z,5.88
2023-01-15T08:49:35.021Z,5.92
2023-01-15T08:52:01.975Z,5.92
2023-01-15T08:54:29.645Z,5.93
2023-01-15T08:56:56.663Z,5.93
2023-01-15T08:59:23.641Z,5.95
2023-01-15T09:01:50.429Z,5.95
2023-01-15T09:04:20.285Z,5.95
2023-01-15T09:06:48.454Z,5.95
2023-01-15T09:09:15.545Z,5.93
2023-01-15T09:11:44.182Z,5.95
2023-01-15T09:14:59.080Z,5.95
2023-01-15T09:17:01.416Z,5.94
2023-01-15T09:19:28.476Z,5.96
2023-01-15T09:21:55.402Z,5.96
2023-01-15T09:24:22.605Z,5.99
2023-01-15T09:26:53.149Z,6.01
2023-01-15T09:29:20.601Z,6.00
2023-01-15T09:31:47.748Z,6.02
2023-01-15T09:34:14.465Z,6.07
2023-01-15T09:36:41.675Z,6.10
2023-01-15T09:39:08.492Z,6.15
2023-01-15T09:42:06.673Z,6.18
2023-01-15T09:44:45.586Z,6.25
2023-01-15T09:47:29.848Z,6.32
2023-01-15T09:50:21.575Z,6.37
2023-01-15T09:52:51.257Z,6.42
2023-01-15T09:55:27.437Z,6.44
2023-01-15T09:58:04.831Z,6.47
2023-01-15T10:00:45.826Z,6.49
2023-01-15T10:03:50.489Z,6.51
2023-01-15T10:06:29.453Z,6.54
2023-01-15T10:09:21.694Z,6.55
2023-01-15T10:12:16.453Z,6.57
2023-01-15T10:14:55.157Z,6.65
2023-01-15T10:17:27.432Z,6.70
2023-01-15T10:19:55.253Z,6.80
2023-01-15T10:22:32.649Z,6.84
2023-01-15T10:25:03.424Z,6.89
2023-01-15T10:27:33.237Z,6.95
2023-01-15T10:33:50.557Z,6.98
2023-01-15T10:36:26.356Z,6.99
2023-01-15T10:39:22.071Z,6.86
2023-01-15T10:42:09.224Z,6.80
2023-01-15T10:45:10.522Z,6.72
2023-01-15T10:47:39.858Z,6.59
2023-01-15T10:50:19.158Z,6.51
2023-01-15T10:53:02.365Z,6.46
2023-01-15T10:55:36.485Z,6.42
2023-01-15T10:58:17.147Z,6.40
2023-01-15T11:00:52.335Z,6.40
2023-01-15T11:03:35.243Z,6.41
2023-01-15T11:06:02.353Z,6.37
2023-01-15T11:11:59.923Z,6.50
2023-01-15T11:14:54.265Z,6.56
2023-01-15T11:17:42.113Z,6.62
2023-01-15T11:20:22.976Z,6.66
2023-01-15T11:22:50.147Z,6.72
2023-01-15T11:25:29.724Z,6.75
2023-01-15T11:27:58.427Z,6.81
2023-01-15T11:30:30.601Z,6.87
2023-01-15T11:33:04.239Z,6.91
2023-01-15T11:35:33.086Z,7.05
2023-01-15T11:38:05.459Z,7.25
2023-01-15T11:40:32.300Z,7.37
2023-01-15T11:43:17.488Z,7.62
2023-01-15T11:46:11.161Z,7.95
2023-01-15T11:49:04.642Z,8.10
2023-01-15T11:51:46.715Z,8.31
2023-01-15T11:54:15.385Z,8.68
2023-01-15T11:56:44.530Z,8.96
2023-01-15T11:59:14.838Z,9.02
2023-01-15T12:01:50.411Z,9.15
2023-01-15T12:04:38.794Z,9.38
2023-01-15T12:07:16.218Z,9.60
2023-01-15T12:10:40.317Z,9.82
2023-01-15T12:13:34.865Z,10.16
2023-01-15T12:16:33.476Z,10.51
2023-01-15T12:19:28.799Z,10.55
2023-01-15T12:22:21.745Z,10.24
2023-01-15T12:25:06.844Z,9.66
2023-01-15T12:27:33.651Z,9.34
2023-01-15T12:30:21.694Z,9.14
2023-01-15T12:32:58.622Z,9.51
2023-01-15T12:35:31.863Z,9.74
2023-01-15T12:38:12.659Z,9.69
2023-01-15T12:40:52.444Z,9.92
2023-01-15T12:43:43.270Z,9.96
2023-01-15T12:46:25.469Z,9.74
2023-01-15T12:49:23.639Z,9.68
2023-01-15T12:52:00.889Z,9.38
2023-01-15T12:54:39.229Z,8.97
2023-01-15T12:57:16.840Z,8.64
2023-01-15T12:59:50.741Z,8.32
2023-01-15T13:02:35.774Z,8.10
2023-01-15T13:05:22.516Z,7.95
2023-01-15T13:08:01.255Z,7.97
2023-01-15T13:10:36.837Z,8.06
2023-01-15T13:13:34.954Z,8.49
2023-01-15T13:16:10.781Z,8.38
2023-01-15T13:18:52.390Z,8.16
2023-01-15T13:21:21.494Z,7.91
2023-01-15T13:24:16.355Z,7.71
2023-01-15T13:26:57.488Z,7.51
2023-01-15T13:30:02.981Z,7.34
2023-01-15T13:32:39.966Z,7.27
2023-01-15T13:35:17.236Z,7.19
2023-01-15T13:37:49.073Z,7.17
2023-01-15T13:40:32.983Z,7.15
2023-01-15T13:43:00.135Z,7.17
2023-01-15T13:45:40.222Z,7.17
2023-01-15T13:48:35.733Z,7.20
2023-01-15T13:51:05.945Z,7.27
2023-01-15T13:53:45.181Z,7.51
2023-01-15T13:56:15.831Z,7.67
2023-01-15T13:59:00.726Z,7.76
2023-01-15T14:01:30.780Z,8.16
2023-01-15T14:04:17.502Z,8.34
2023-01-15T14:06:49.915Z,8.32
2023-01-15T14:09:22.660Z,8.30
2023-01-15T14:12:08.125Z,8.21
2023-01-15T14:15:03.779Z,8.60
2023-01-15T14:17:57.563Z,8.42
2023-01-15T14:20:34.099Z,8.19
2023-01-15T14:23:45.706Z,8.02
2023-01-15T14:26:24.913Z,7.77
2023-01-15T14:29:19.863Z,7.59
2023-01-15T14:32:08.736Z,7.46
2023-01-15T14:34:36.711Z,7.38
2023-01-15T14:37:18.758Z,7.29
2023-01-15T14:39:52.835Z,7.32
2023-01-15T14:42:41.319Z,7.39
2023-01-15T14:45:13.800Z,7.34
2023-01-15T14:47:59.997Z,7.38
2023-01-15T14:50:39.503Z,7.36
2023-01-15T14:53:13.422Z,7.27
2023-01-15T14:55:47.728Z,7.27
2023-01-15T14:58:43.408Z,7.21
2023-01-15T15:01:22.247Z,7.16
2023-01-15T15:03:58.737Z,7.11
2023-01-15T15:06:27.289Z,7.11
2023-01-15T15:09:01.915Z,7.09
2023-01-15T15:12:02.391Z,7.07
2023-01-15T15:14:30.656Z,7.08
2023-01-15T15:17:01.649Z,7.08
2023-01-15T15:19:35.770Z,7.07
2023-01-15T15:22:05.911Z,7.05
2023-01-15T15:24:36.483Z,7.03
2023-01-15T15:27:21.376Z,7.03
2023-01-15T15:29:48.686Z,7.03
2023-01-15T15:32:22.154Z,6.99
2023-01-15T15:34:51.241Z,6.96
2023-01-15T15:37:25.262Z,6.89
2023-01-15T15:39:56.208Z,6.86
2023-01-15T15:42:45.910Z,6.85
2023-01-15T15:45:41.193Z,6.83
2023-01-15T15:48:40.459Z,6.82
2023-01-15T15:51:34.151Z,6.81
2023-01-15T15:54:16.011Z,6.76
2023-01-15T15:56:47.828Z,6.72
2023-01-15T15:59:25.794Z,6.69
2023-01-15T16:01:53.621Z,6.66
2023-01-15T16:04:20.798Z,6.66
2023-01-15T16:06:49.074Z,6.66
2023-01-15T16:09:23.781Z,6.65
2023-01-15T16:11:53.140Z,6.69
2023-01-15T16:14:21.859Z,6.69
2023-01-15T16:16:49.830Z,6.71
2023-01-15T16:19:25.649Z,6.72
2023-01-15T16:21:53.500Z,6.73
2023-01-15T16:24:26.953Z,6.75
2023-01-15T16:27:05.527Z,6.74
2023-01-15T16:29:34.702Z,6.77
2023-01-15T16:32:09.883Z,6.77
2023-01-15T16:34:36.922Z,6.76
2023-01-15T16:37:03.926Z,6.80
2023-01-15T16:39:39.608Z,6.80
2023-01-15T16:42:25.870Z,6.80
2023-01-15T16:44:56.435Z,6.80
2023-01-15T16:47:26.954Z,6.81
2023-01-15T16:49:53.936Z,6.80
2023-01-15T16:52:50.272Z,6.81
2023-01-15T16:55:38.395Z,6.83
2023-01-15T16:58:34.190Z,6.81
2023-01-15T17:01:02.229Z,6.82
2023-01-15T17:03:31.932Z,6.84
2023-01-15T17:06:04.301Z,6.84
2023-01-15T17:08:38.695Z,6.83
2023-01-15T17:11:19.650Z,6.85
2023-01-15T17:13:46.400Z,6.84
2023-01-15T17:16:13.105Z,6.85
2023-01-15T17:18:40.043Z,6.87
2023-01-15T17:21:10.310Z,6.86
2023-01-15T17:23:42.888Z,6.84
2023-01-15T17:26:17.491Z,6.87
2023-01-15T17:28:45.008Z,6.89
2023-01-15T17:31:30.153Z,6.91
2023-01-15T17:33:59.705Z,6.90
2023-01-15T17:36:27.846Z,6.91
2023-01-15T17:38:55.849Z,6.93
2023-01-15T17:41:24.007Z,6.96
2023-01-15T17:43:50.899Z,6.95
2023-01-15T17:46:18.420Z,6.95
2023-01-15T17:48:45.075Z,6.96
2023-01-15T17:51:14.527Z,6.96
2023-01-15T17:53:41.335Z,6.98
2023-01-15T17:56:27.646Z,6.96
2023-01-15T17:59:13.231Z,6.96
2023-01-15T18:02:02.013Z,6.97
2023-01-15T18:04:53.988Z,6.97
2023-01-15T18:07:23.659Z,6.97
2023-01-15T18:09:53.047Z,6.95
2023-01-15T18:12:20.149Z,6.93
2023-01-15T18:14:46.958Z,6.95
2023-01-15T18:17:16.065Z,6.95
2023-01-15T18:19:43.337Z,6.96
2023-01-15T18:22:10.702Z,6.96
2023-01-15T18:24:37.638Z,6.95
2023-01-15T18:27:04.415Z,6.98
2023-01-15T18:29:38.583Z,6.96
2023-01-15T18:32:05.390Z,6.94
2023-01-15T18:34:32.003Z,6.93
2023-01-15T18:36:58.732Z,6.97
2023-01-15T18:39:25.508Z,6.95
2023-01-15T18:41:52.433Z,6.94
2023-01-15T18:44:40.130Z,6.95
2023-01-15T18:47:12.338Z,6.94
2023-01-15T18:49:43.173Z,6.94
2023-01-15T18:52:30.084Z,6.93
2023-01-15T18:54:57.170Z,6.96
2023-01-15T18:57:24.213Z,6.95
2023-01-15T18:59:51.524Z,6.93
2023-01-15T19:02:20.378Z,6.92
2023-01-15T19:04:48.369Z,6.89
2023-01-15T19:07:16.023Z,6.89
2023-01-15T19:09:43.445Z,6.91
2023-01-15T19:12:10.467Z,6.88
2023-01-15T19:14:56.126Z,6.88
2023-01-15T19:17:43.793Z,6.86
2023-01-15T19:20:13.606Z,6.86
2023-01-15T19:22:58.742Z,6.83
2023-01-15T19:25:27.841Z,6.80
2023-01-15T19:27:55.487Z,6.80
2023-01-15T19:30:23.468Z,6.80
2023-01-15T19:32:50.289Z,6.78
2023-01-15T19:35:17.895Z,6.78
2023-01-15T19:37:46.438Z,6.76
2023-01-15T19:40:24.070Z,6.77
2023-01-15T19:43:09.830Z,6.77
2023-01-15T19:45:57.898Z,6.74
2023-01-15T19:48:43.700Z,6.75
2023-01-15T19:51:10.313Z,6.74
2023-01-15T19:53:40.086Z,6.73
2023-01-15T19:56:07.888Z,6.73
2023-01-15T19:58:35.567Z,6.70
2023-01-15T20:01:02.909Z,6.68
2023-01-15T20:03:30.537Z,6.66
2023-01-15T20:05:57.955Z,6.64
2023-01-15T20:08:24.801Z,6.64
2023-01-15T20:10:51.908Z,6.62
2023-01-15T20:13:39.180Z,6.63
2023-01-15T20:16:14.964Z,6.63
2023-01-15T20:18:42.039Z,6.61
2023-01-15T20:21:12.326Z,6.59
2023-01-15T20:23:40.079Z,6.59
2023-01-15T20:26:12.463Z,6.55
2023-01-15T20:28:41.831Z,6.46
2023-01-15T20:31:16.097Z,6.43
2023-01-15T20:33:43.139Z,6.39
2023-01-15T20:36:10.073Z,6.36
2023-01-15T20:38:36.709Z,6.36
2023-01-15T20:41:27.034Z,6.38
2023-01-15T20:44:12.559Z,6.38
2023-01-15T20:46:39.645Z,6.36
2023-01-15T20:49:25.257Z,6.38
2023-01-15T20:51:52.735Z,6.39
2023-01-15T20:54:20.818Z,6.40
2023-01-15T20:56:47.459Z,6.43
2023-01-15T20:59:14.185Z,6.43
2023-01-15T21:01:41.622Z,6.43
2023-01-15T21:04:09.782Z,6.45
2023-01-15T21:06:36.930Z,6.45
2023-01-15T21:09:03.632Z,6.46
2023-01-15T21:11:30.629Z,6.42
2023-01-15T21:13:57.569Z,6.43
2023-01-15T21:16:24.543Z,6.41
2023-01-15T21:18:51.242Z,6.39
2023-01-15T21:21:20.604Z,6.38
2023-01-15T21:23:47.420Z,6.37
2023-01-15T21:26:15.821Z,6.34
2023-01-15T21:28:44.249Z,6.31
2023-01-15T21:31:13.059Z,6.29
2023-01-15T21:33:42.420Z,6.25
2023-01-15T21:36:10.980Z,6.20
2023-01-15T21:38:37.823Z,6.16
2023-01-15T21:41:08.626Z,6.11
2023-01-15T21:43:54.112Z,6.09
2023-01-15T21:46:23.017Z,6.05
2023-01-15T21:48:56.063Z,6.05
2023-01-15T21:51:23.632Z,6.05
2023-01-15T21:53:51.180Z,6.00
2023-01-15T21:56:20.699Z,5.93
2023-01-15T21:58:47.719Z,5.90
2023-01-15T22:01:18.286Z,5.87
2023-01-15T22:03:45.876Z,5.85
2023-01-15T22:06:12.891Z,5.86
2023-01-15T22:08:39.867Z,5.83
2023-01-15T22:11:11.375Z,5.82
2023-01-15T22:13:41.388Z,5.78
2023-01-15T22:16:11.418Z,5.76
2023-01-15T22:18:38.629Z,5.68
2023-01-15T22:21:07.692Z,5.67
2023-01-15T22:23:35.136Z,5.61
2023-01-15T22:26:02.203Z,5.55
2023-01-15T22:28:31.840Z,5.48
2023-01-15T22:31:04.836Z,5.42
2023-01-15T22:33:31.840Z,5.38
2023-01-15T22:35:59.996Z,5.32
2023-01-15T22:38:27.658Z,5.27
2023-01-15T22:40:57.846Z,5.23
2023-01-15T22:43:32.266Z,5.18
2023-01-15T22:46:09.182Z,5.18
2023-01-15T22:48:36.565Z,5.13
2023-01-15T22:51:04.391Z,5.09
2023-01-15T22:53:31.306Z,5.09
2023-01-15T22:56:01.247Z,5.07
2023-01-15T22:58:28.574Z,5.06
2023-01-15T23:00:55.913Z,5.07
2023-01-15T23:03:23.576Z,5.07
2023-01-15T23:05:51.012Z,5.06
2023-01-15T23:08:18.302Z,5.07
2023-01-15T23:10:46.364Z,5.10
2023-01-15T23:13:13.406Z,5.13
2023-01-15T23:15:40.486Z,5.17
2023-01-15T23:18:07.567Z,5.22
2023-01-15T23:20:34.668Z,5.26
2023-01-15T23:23:01.758Z,5.31
2023-01-15T23:25:28.913Z,5.34
2023-01-15T23:27:56.265Z,5.35
2023-01-15T23:30:23.925Z,5.37
2023-01-15T23:32:51.123Z,5.36
2023-01-15T23:35:18.329Z,5.39
2023-01-15T23:37:47.406Z,5.41
2023-01-15T23:40:14.951Z,5.42
2023-01-15T23:43:02.788Z,5.45
2023-01-15T23:45:48.717Z,5.49
2023-01-15T23:48:16.145Z,5.50
2023-01-15T23:50:43.082Z,5.50
2023-01-15T23:53:09.957Z,5.46
2023-01-15T23:55:36.726Z,5.44
2023-01-15T23:58:03.680Z,5.42
